Messwerte Pottstown

Temperatur

Temperatur
°C
1573984800 5.00 5.00 -3
1573988400 6.00 6.00 -4
1573992000 7.00 7.00 -3
1573995600 8.00 8.00 -3
1573999200 9.00 9.00 -1
1574002800 10.00 10.00 1
1574006400 11.00 11.00 2
1574010000 12.00 12.00 4
1574013600 13.00 13.00 5
1574017200 14.00 14.00 5
1574020800 15.00 15.00
1574024400 16.00 16.00 4
1574028000 17.00 17.00 4
1574031600 18.00 18.00 4
1574035200 19.00 19.00 3
1574038800 20.00 20.00 3
1574042400 21.00 21.00 3
1574046000 22.00 22.00 3
1574049600 23.00 23.00 3
1574053200 0.00 0.00 2
1574056800 1.00 1.00 2
1574060400 2.00 2.00 1
1574064000 3.00 3.00 1
1574067600 4.00 4.00

Wir danken unserem Partner:

Aktuellste Messwerte

Wettercharakter
Wetter: bedeckt
Temperatur
1 °C
Feuchtigkeit
85 %
Wind
10 km/hWindrichtung: Nord
Luftdruck
1014 hPa
Messzeit: 18. November 2019, 5.00Datenquelle: METAR

Weitere Messstationen in der Nähe

Messstation Temperatur Entfernung
Philadelphia 3 °C 27 km
Quakertown 1 °C 27 km
Reading 2 °C 38 km
Doylestown 3 °C 39 km
Allentown 2 °C 47 km
Philadelphia 4 °C 48 km
Philadelphia 4 °C 50 km

Wind

Windrichtung Böen Mittelwind
° km/h km/h
1573984800 5.00 4.00 - 5.00 350° 5
1573988400 6.00 5.00 - 6.00 20° 5
1573992000 7.00 6.00 - 7.00 30° 15
1573995600 8.00 7.00 - 8.00 20° 10
1573999200 9.00 8.00 - 9.00 60° 10
1574002800 10.00 9.00 - 10.00 40° 15
1574006400 11.00 10.00 - 11.00 20° 15
1574010000 12.00 11.00 - 12.00 50° 20
1574013600 13.00 12.00 - 13.00 40° 30 20
1574017200 14.00 13.00 - 14.00 50° 20
1574020800 15.00 14.00 - 15.00
1574024400 16.00 15.00 - 16.00 40° 15
1574028000 17.00 16.00 - 17.00 60° 15
1574031600 18.00 17.00 - 18.00 50° 15
1574035200 19.00 18.00 - 19.00 60° 15
1574038800 20.00 19.00 - 20.00 30° 15
1574042400 21.00 20.00 - 21.00 10° 10
1574046000 22.00 21.00 - 22.00 30° 15
1574049600 23.00 22.00 - 23.00 40° 15
1574053200 0.00 23.00 - 0.00 20° 10
1574056800 1.00 0.00 - 1.00 20° 15
1574060400 2.00 1.00 - 2.00 360° 10
1574064000 3.00 2.00 - 3.00 10° 10
1574067600 4.00 3.00 - 4.00

Ihre Wetterstation

Fehlt Ihre Wetterstation auf unserem Portal?

Schreiben Sie an network@meteonews.ch

Klima

Wann ist es am wärmsten? Wann regnet es am wenigsten? Unsere Klimadaten geben Auskunft.